Time;durP1;ratioP1;P1;durP2;ratioP2;P2;SDS_P1;SDS_P2;PMS_P1;PMS_P2;Temp;Humidity;BMP_temperature;BMP_pressure;BME280_temperature;BME280_humidity;BME280_pressure;Samples;Min_cycle;Max_cycle;Signal;HPM_P1;HPM_P2
2023/09/21 00:02:28;;;;;;;18.70;7.15;;;;;;;24.59;63.40;100879.34;4954112;28;20664;-78
2023/09/21 00:05:00;;;;;;;10.75;6.72;;;;;;;24.59;63.98;100882.06;4955538;28;20192;-80
2023/09/21 00:07:32;;;;;;;13.52;7.35;;;;;;;24.39;63.42;100846.94;4969384;28;20041;-77
2023/09/21 00:10:05;;;;;;;13.43;6.93;;;;;;;24.57;63.61;100874.16;4965259;28;20049;-80
2023/09/21 00:12:34;;;;;;;15.02;6.63;;;;;;;24.56;63.95;100871.66;4990095;28;20059;-78
2023/09/21 00:15:08;;;;;;;21.45;7.05;;;;;;;24.03;63.67;100789.66;4983372;28;20148;-77
2023/09/21 00:17:40;;;;;;;11.00;6.75;;;;;;;24.20;63.61;100846.03;4955992;28;20121;-80
2023/09/21 00:20:28;;;;;;;11.25;6.20;;;;;;;24.33;63.13;100873.09;4969765;28;20055;-77
2023/09/21 00:22:59;;;;;;;14.45;6.45;;;;;;;24.26;64.12;100845.19;4976226;28;20048;-80
2023/09/21 00:25:30;;;;;;;11.65;6.57;;;;;;;24.46;64.12;100864.84;4964352;28;20300;-78
2023/09/21 00:28:12;;;;;;;16.95;6.57;;;;;;;24.39;63.13;100852.38;4951771;28;20056;-80
2023/09/21 00:30:42;;;;;;;11.15;6.38;;;;;;;24.28;63.40;100856.66;4964821;28;20418;-80
2023/09/21 00:33:13;;;;;;;12.63;6.80;;;;;;;24.33;63.95;100859.53;4964718;28;20398;-80
2023/09/21 00:35:46;;;;;;;15.02;6.55;;;;;;;24.27;63.41;100852.25;4957534;28;20333;-80
2023/09/21 00:38:14;;;;;;;15.50;7.70;;;;;;;24.28;63.12;100859.34;4968669;28;20055;-77
2023/09/21 00:40:44;;;;;;;13.02;6.35;;;;;;;24.07;62.70;100847.81;4967908;28;20045;-79
2023/09/21 00:43:27;;;;;;;13.52;6.65;;;;;;;24.00;63.51;100838.88;4979757;28;20372;-79
2023/09/21 00:46:04;;;;;;;15.27;6.88;;;;;;;24.05;63.20;100862.63;5017788;28;20341;-79
2023/09/21 00:48:36;;;;;;;14.48;6.88;;;;;;;24.03;63.53;100857.47;4985673;28;20390;-80
2023/09/21 00:51:09;;;;;;;18.75;6.68;;;;;;;23.02;62.84;100690.25;4980531;28;20055;-81
2023/09/21 00:53:39;;;;;;;13.32;5.82;;;;;;;23.85;62.78;100827.53;4990162;28;20229;-79
2023/09/21 00:56:13;;;;;;;10.45;5.68;;;;;;;23.80;63.01;100825.47;5006131;28;20132;-79
2023/09/21 00:58:48;;;;;;;12.10;6.60;;;;;;;23.89;61.86;100842.31;5019790;28;20418;-78
2023/09/21 01:01:28;;;;;;;13.02;6.43;;;;;;;23.67;62.28;100812.81;5005023;28;20060;-78
2023/09/21 01:03:58;;;;;;;14.93;6.63;;;;;;;23.82;64.13;100822.56;5007074;28;20049;-77
2023/09/21 01:06:25;;;;;;;12.02;6.30;;;;;;;23.63;62.49;100806.16;5021362;28;20107;-79
2023/09/21 01:08:56;;;;;;;22.65;6.18;;;;;;;23.62;62.24;100812.63;5010277;28;20504;-76
2023/09/21 01:11:24;;;;;;;19.65;6.85;;;;;;;23.61;62.77;100832.63;5025445;28;20567;-77
2023/09/21 01:13:51;;;;;;;18.33;6.50;;;;;;;23.49;63.28;100828.94;5008475;28;20495;-76
2023/09/21 01:16:18;;;;;;;11.00;6.50;;;;;;;23.34;64.10;100826.53;5021650;28;20501;-76
2023/09/21 01:18:46;;;;;;;14.73;6.55;;;;;;;23.13;64.76;100808.72;5010611;28;20693;-79
2023/09/21 01:21:25;;;;;;;15.43;6.38;;;;;;;23.14;64.85;100814.97;5018247;28;20091;-79
2023/09/21 01:23:52;;;;;;;17.02;6.93;;;;;;;23.05;66.24;100795.41;5017714;28;20057;-77
2023/09/21 01:26:24;;;;;;;14.88;6.63;;;;;;;23.11;66.44;100809.94;5004742;28;20451;-77
2023/09/21 01:28:54;;;;;;;16.15;7.25;;;;;;;22.96;67.36;100753.31;5021922;28;20053;-78
2023/09/21 01:31:29;;;;;;;15.40;6.22;;;;;;;23.24;67.10;100790.94;5001205;28;20053;-77
2023/09/21 01:34:00;;;;;;;14.20;6.70;;;;;;;23.22;66.55;100774.91;5008200;28;20053;-76
2023/09/21 01:36:32;;;;;;;12.98;6.32;;;;;;;23.44;67.26;100786.25;4974722;28;20053;-78
2023/09/21 01:39:09;;;;;;;18.80;5.97;;;;;;;23.74;66.81;100795.69;5001548;28;20052;-79
2023/09/21 01:41:36;;;;;;;13.63;6.07;;;;;;;23.73;66.27;100766.91;5015157;28;20056;-77
2023/09/21 01:44:03;;;;;;;17.13;6.38;;;;;;;23.82;64.56;100777.28;5008692;28;20041;-78
2023/09/21 01:46:34;;;;;;;17.00;6.70;;;;;;;23.71;64.67;100766.28;5014244;28;20298;-77
2023/09/21 01:49:05;;;;;;;12.50;5.63;;;;;;;23.77;65.79;100755.44;5023617;28;20060;-78
2023/09/21 01:51:37;;;;;;;14.95;5.32;;;;;;;23.75;65.05;100732.31;5007176;28;20045;-78
2023/09/21 01:54:08;;;;;;;16.05;6.13;;;;;;;23.91;64.73;100750.75;5011856;28;20233;-79
2023/09/21 01:56:35;;;;;;;14.80;6.72;;;;;;;23.81;64.50;100736.84;5017235;28;20513;-80
2023/09/21 01:59:03;;;;;;;13.43;6.05;;;;;;;23.66;64.26;100701.91;5017450;28;20407;-81
2023/09/21 02:01:33;;;;;;;14.82;6.30;;;;;;;23.94;64.35;100723.19;5011477;28;20449;-79
2023/09/21 02:04:00;;;;;;;10.85;5.35;;;;;;;23.83;63.39;100723.91;5015612;28;20377;-78
2023/09/21 02:06:30;;;;;;;10.13;5.85;;;;;;;23.88;64.38;100732.19;5002075;28;20649;-81
2023/09/21 02:08:59;;;;;;;15.68;6.10;;;;;;;23.83;63.55;100729.31;5014814;28;20048;-79
2023/09/21 02:11:27;;;;;;;16.30;5.60;;;;;;;23.88;64.42;100732.19;5008336;28;20048;-79
2023/09/21 02:13:55;;;;;;;13.05;5.65;;;;;;;23.79;63.68;100715.41;5003693;28;20144;-79
2023/09/21 02:16:26;;;;;;;17.35;6.20;;;;;;;23.85;64.03;100719.09;5012763;28;20422;-81
2023/09/21 02:18:57;;;;;;;15.32;6.65;;;;;;;23.74;64.54;100695.41;5010778;28;20504;-78
2023/09/21 02:21:34;;;;;;;19.13;6.50;;;;;;;23.56;63.20;100672.59;5017968;28;20106;-80
2023/09/21 02:24:05;;;;;;;10.80;5.20;;;;;;;23.66;64.45;100689.19;5019413;28;20386;-77
2023/09/21 02:26:32;;;;;;;15.93;5.82;;;;;;;23.72;64.87;100683.94;5011699;28;20055;-80
2023/09/21 02:29:00;;;;;;;14.10;6.38;;;;;;;23.70;63.27;100672.50;4999478;28;20441;-77
2023/09/21 02:31:28;;;;;;;18.17;6.57;;;;;;;23.86;63.44;100699.06;5009972;28;20063;-79
2023/09/21 02:33:55;;;;;;;13.90;5.85;;;;;;;23.82;64.40;100695.16;4994963;28;20045;-79
2023/09/21 02:36:25;;;;;;;14.30;5.30;;;;;;;23.36;65.08;100606.91;4989649;28;20579;-81
2023/09/21 02:38:52;;;;;;;15.93;6.65;;;;;;;23.77;63.28;100676.00;5003684;28;20041;-77
2023/09/21 02:41:19;;;;;;;14.10;5.82;;;;;;;23.86;63.66;100688.22;5014344;28;20084;-77
2023/09/21 02:43:50;;;;;;;14.57;5.43;;;;;;;23.81;63.10;100683.50;4995355;28;20332;-80
2023/09/21 02:46:17;;;;;;;15.63;5.35;;;;;;;23.23;62.92;100624.94;5000627;28;20041;-77
2023/09/21 02:48:44;;;;;;;15.88;5.55;;;;;;;23.72;63.81;100711.06;5021835;28;20057;-76
2023/09/21 02:51:12;;;;;;;9.85;5.40;;;;;;;23.60;64.20;100683.84;5025075;28;20244;-78
2023/09/21 02:53:39;;;;;;;15.38;4.80;;;;;;;23.69;64.38;100682.50;5015866;28;20060;-79
2023/09/21 02:56:13;;;;;;;15.60;5.45;;;;;;;23.84;63.83;100706.59;4991276;28;20051;-80
2023/09/21 02:58:44;;;;;;;13.30;5.80;;;;;;;23.89;63.12;100698.63;4986990;28;20056;-79
2023/09/21 03:01:15;;;;;;;15.57;5.40;;;;;;;23.76;62.85;100671.63;5016281;28;20045;-79
2023/09/21 03:03:45;;;;;;;11.50;5.18;;;;;;;23.95;64.02;100689.59;5017512;28;20698;-79
2023/09/21 03:06:17;;;;;;;9.40;4.65;;;;;;;23.97;63.61;100679.38;5004476;28;20053;-78
2023/09/21 03:08:45;;;;;;;11.18;5.28;;;;;;;24.05;63.50;100676.34;5018775;28;20063;-79
2023/09/21 03:11:12;;;;;;;13.07;5.32;;;;;;;23.96;63.33;100672.28;5015665;28;20552;-80
2023/09/21 03:13:39;;;;;;;13.90;6.30;;;;;;;23.82;62.68;100668.03;5017268;28;20053;-77
2023/09/21 03:16:12;;;;;;;14.18;5.70;;;;;;;23.92;62.86;100675.66;4981538;28;20056;-79
2023/09/21 03:18:47;;;;;;;12.07;5.50;;;;;;;23.74;62.81;100660.16;5017287;28;20048;-81
2023/09/21 03:21:19;;;;;;;13.98;5.70;;;;;;;23.60;63.59;100630.47;4997756;28;20522;-80
2023/09/21 03:23:52;;;;;;;7.35;5.03;;;;;;;23.98;64.40;100659.34;5014741;28;20041;-78
2023/09/21 03:26:21;;;;;;;12.43;5.97;;;;;;;24.04;62.94;100663.88;5021610;28;20387;-79
2023/09/21 03:28:52;;;;;;;15.13;5.55;;;;;;;24.05;63.39;100665.50;5020146;28;20491;-77
2023/09/21 03:31:19;;;;;;;13.30;5.60;;;;;;;24.01;62.18;100647.22;5005344;28;20056;-77
2023/09/21 03:33:52;;;;;;;9.18;4.60;;;;;;;24.13;62.86;100661.69;5011337;28;20103;-77
2023/09/21 03:36:20;;;;;;;12.00;5.60;;;;;;;24.00;62.56;100630.09;5005573;28;20390;-76
2023/09/21 03:38:47;;;;;;;13.70;5.05;;;;;;;24.18;63.30;100642.03;4988847;28;20132;-77
2023/09/21 03:41:15;;;;;;;18.13;6.00;;;;;;;23.64;62.01;100554.97;5011872;28;20060;-76
2023/09/21 03:43:43;;;;;;;9.20;5.18;;;;;;;23.91;63.42;100598.09;5021680;28;20049;-77
2023/09/21 03:46:10;;;;;;;12.85;5.93;;;;;;;24.01;62.63;100625.53;5016645;28;20167;-77
2023/09/21 03:48:37;;;;;;;15.20;6.32;;;;;;;24.03;63.23;100621.53;5016685;28;20057;-78
2023/09/21 03:51:05;;;;;;;18.58;6.85;;;;;;;23.99;61.66;100623.03;4999783;28;20176;-77
2023/09/21 03:53:34;;;;;;;9.77;4.90;;;;;;;23.17;62.23;100505.81;5018814;28;20107;-81
2023/09/21 03:56:01;;;;;;;12.27;5.40;;;;;;;23.53;61.80;100572.78;5027498;28;20048;-79
2023/09/21 03:58:28;;;;;;;9.90;4.53;;;;;;;23.51;63.34;100576.78;5006913;28;20051;-78
2023/09/21 04:00:57;;;;;;;11.13;4.50;;;;;;;23.52;64.62;100571.16;5004046;28;20077;-78
2023/09/21 04:03:26;;;;;;;21.48;6.20;;;;;;;23.94;63.43;100609.31;5006899;28;20321;-81
2023/09/21 04:05:53;;;;;;;14.32;5.45;;;;;;;24.15;62.54;100620.78;4997100;28;20059;-78
2023/09/21 04:08:20;;;;;;;12.65;5.72;;;;;;;24.18;63.07;100615.75;4992326;28;20128;-79
2023/09/21 04:10:47;;;;;;;10.93;5.05;;;;;;;23.99;63.19;100595.91;5016058;28;20569;-78
2023/09/21 04:13:15;;;;;;;12.52;5.90;;;;;;;23.75;61.63;100564.28;5019646;28;20482;-78
2023/09/21 04:15:49;;;;;;;19.90;6.15;;;;;;;23.70;60.97;100575.75;5000971;28;20768;-81
2023/09/21 04:18:17;;;;;;;9.60;5.28;;;;;;;23.70;62.25;100605.56;5001949;28;20124;-77
2023/09/21 04:20:49;;;;;;;13.52;5.60;;;;;;;23.34;61.78;100563.78;5013336;28;20376;-80
2023/09/21 04:23:24;;;;;;;18.08;6.20;;;;;;;23.34;62.09;100600.88;5001680;28;20048;-78
2023/09/21 04:25:52;;;;;;;13.95;5.88;;;;;;;23.34;63.96;100603.59;5009579;28;20128;-80
2023/09/21 04:28:19;;;;;;;7.60;4.45;;;;;;;23.58;65.15;100594.63;5022302;28;20548;-79
2023/09/21 04:30:47;;;;;;;17.98;5.32;;;;;;;23.29;64.01;100530.31;5016192;28;20076;-79
2023/09/21 04:33:26;;;;;;;21.02;7.15;;;;;;;23.04;63.17;100496.75;5001497;28;20312;-81
2023/09/21 04:35:55;;;;;;;17.83;6.90;;;;;;;23.13;62.80;100548.78;5018787;28;20463;-78
2023/09/21 04:38:24;;;;;;;18.15;6.47;;;;;;;23.15;63.21;100598.09;5024890;28;20053;-77
2023/09/21 04:40:53;;;;;;;14.85;5.93;;;;;;;22.94;63.62;100584.91;5023393;28;20040;-79
2023/09/21 04:43:20;;;;;;;12.90;6.70;;;;;;;22.40;63.83;100525.69;5016101;28;20469;-79
2023/09/21 04:45:48;;;;;;;19.75;6.75;;;;;;;22.63;64.40;100586.53;5012778;28;20150;-79
2023/09/21 04:48:15;;;;;;;15.55;6.32;;;;;;;22.75;65.25;100601.03;5031351;28;20520;-78
2023/09/21 04:50:46;;;;;;;13.77;5.55;;;;;;;23.05;66.94;100614.00;5033740;28;20068;-78
2023/09/21 04:53:13;;;;;;;19.17;6.53;;;;;;;23.00;64.72;100614.66;5014581;28;20132;-77
2023/09/21 04:55:40;;;;;;;18.90;6.45;;;;;;;22.83;64.63;100619.72;5004003;28;20075;-78
2023/09/21 04:58:07;;;;;;;18.13;6.97;;;;;;;22.39;64.84;100567.28;5020166;28;20132;-80
2023/09/21 05:00:34;;;;;;;17.40;7.10;;;;;;;22.54;65.44;100610.28;5028456;28;20560;-78
2023/09/21 05:03:06;;;;;;;19.63;6.03;;;;;;;22.77;66.38;100626.00;5007587;28;20126;-80
2023/09/21 05:05:35;;;;;;;18.58;7.53;;;;;;;22.64;65.55;100604.41;5006313;28;20702;-77
2023/09/21 05:08:03;;;;;;;10.93;5.93;;;;;;;22.81;66.04;100624.50;5001310;28;20296;-79
2023/09/21 05:10:34;;;;;;;17.23;7.30;;;;;;;22.82;66.74;100596.41;5001792;28;20053;-81
2023/09/21 05:13:04;;;;;;;13.50;6.03;;;;;;;22.97;65.63;100615.06;5028851;28;20040;-79
2023/09/21 05:15:33;;;;;;;18.20;7.07;;;;;;;22.99;65.55;100612.19;5025980;28;20564;-82
2023/09/21 05:18:00;;;;;;;13.13;6.65;;;;;;;22.88;66.17;100577.66;5003737;28;20411;-78
2023/09/21 05:20:28;;;;;;;12.15;6.75;;;;;;;23.18;64.70;100611.22;4996482;28;20440;-78
2023/09/21 05:22:54;;;;;;;18.75;6.80;;;;;;;23.05;65.18;100597.75;5020574;28;20502;-77
2023/09/21 05:25:21;;;;;;;17.60;7.40;;;;;;;22.71;64.84;100571.91;5011814;28;20055;-78
2023/09/21 05:27:49;;;;;;;16.35;7.22;;;;;;;23.02;66.22;100606.31;5023171;28;20056;-76
2023/09/21 05:30:20;;;;;;;12.05;5.80;;;;;;;23.11;66.49;100596.91;5024295;28;20132;-76
2023/09/21 05:32:47;;;;;;;12.10;5.57;;;;;;;23.32;66.11;100613.81;5018662;28;20053;-77
2023/09/21 05:35:16;;;;;;;22.88;7.53;;;;;;;23.32;65.02;100600.28;5024757;28;20045;-79
2023/09/21 05:37:46;;;;;;;20.25;7.97;;;;;;;23.33;65.81;100601.94;5019649;28;20676;-80
2023/09/21 05:40:12;;;;;;;11.20;5.65;;;;;;;23.42;65.82;100600.59;5011521;28;20708;-79
2023/09/21 05:42:44;;;;;;;17.10;6.65;;;;;;;23.43;65.53;100581.41;5029992;28;20132;-79
2023/09/21 05:45:11;;;;;;;21.20;7.50;;;;;;;23.38;64.76;100537.91;5037861;28;20506;-77
2023/09/21 05:47:38;;;;;;;20.88;6.53;;;;;;;23.50;64.99;100551.56;5031357;28;20422;-77
2023/09/21 05:50:07;;;;;;;22.27;7.72;;;;;;;23.46;62.99;100558.47;5010152;28;20651;-76
2023/09/21 05:52:36;;;;;;;17.15;8.20;;;;;;;23.04;63.45;100499.47;5029354;28;20633;-77
2023/09/21 05:55:05;;;;;;;28.20;7.82;;;;;;;23.37;63.39;100562.50;5028902;28;20421;-77
2023/09/21 05:57:34;;;;;;;18.70;6.97;;;;;;;23.49;64.05;100585.13;5024614;28;20318;-81
2023/09/21 06:00:01;;;;;;;18.70;7.35;;;;;;;23.39;63.48;100584.78;5027220;28;20087;-79
2023/09/21 06:02:28;;;;;;;20.52;7.13;;;;;;;22.93;63.48;100542.63;5015571;28;20095;-77
2023/09/21 06:04:55;;;;;;;14.88;6.78;;;;;;;23.08;63.97;100578.34;5022011;28;20045;-77
2023/09/21 06:07:24;;;;;;;12.07;5.65;;;;;;;23.11;64.42;100594.19;5025349;28;20544;-77
2023/09/21 06:09:52;;;;;;;24.60;6.93;;;;;;;23.33;64.59;100586.50;5022114;28;20082;-78
2023/09/21 06:12:24;;;;;;;29.38;7.18;;;;;;;23.27;63.54;100586.56;5008658;28;20142;-81
2023/09/21 06:14:57;;;;;;;42.92;19.65;;;;;;;23.34;64.46;100581.91;5022714;28;20567;-78
2023/09/21 06:17:24;;;;;;;9.55;5.50;;;;;;;23.53;65.51;100572.78;5019483;28;20052;-79
2023/09/21 06:19:53;;;;;;;22.27;8.40;;;;;;;23.55;64.42;100549.00;5009153;28;20052;-80
2023/09/21 06:22:20;;;;;;;16.85;7.22;;;;;;;23.78;64.43;100575.47;5023541;28;20505;-78
2023/09/21 06:24:46;;;;;;;25.92;8.07;;;;;;;23.65;64.24;100549.31;5007731;28;20343;-79
2023/09/21 06:27:19;;;;;;;14.60;6.40;;;;;;;23.79;64.28;100554.66;5007429;28;20059;-82
2023/09/21 06:29:46;;;;;;;22.45;7.13;;;;;;;23.76;62.38;100563.22;5019442;28;20048;-78
2023/09/21 06:32:13;;;;;;;14.13;5.88;;;;;;;24.01;63.21;100593.81;5011292;28;20232;-79
2023/09/21 06:34:48;;;;;;;13.40;6.18;;;;;;;24.02;63.37;100590.03;5001371;28;20127;-81
2023/09/21 06:37:15;;;;;;;18.98;6.47;;;;;;;23.67;61.21;100530.16;4996188;28;20464;-77
2023/09/21 06:39:42;;;;;;;8.55;5.43;;;;;;;23.86;63.05;100549.97;5016461;28;20464;-76
2023/09/21 06:42:09;;;;;;;17.25;6.40;;;;;;;24.05;62.75;100551.63;5012935;28;20523;-78
2023/09/21 06:44:36;;;;;;;24.40;6.25;;;;;;;24.31;61.97;100598.47;5002100;28;20486;-76
2023/09/21 06:47:04;;;;;;;17.15;6.15;;;;;;;24.46;63.13;100612.50;5019050;28;20415;-78
2023/09/21 06:49:32;;;;;;;11.75;6.22;;;;;;;24.15;62.14;100556.50;4980480;28;20406;-79
2023/09/21 06:52:04;;;;;;;15.10;6.88;;;;;;;24.30;59.52;100603.09;5017286;28;20144;-78
2023/09/21 06:54:32;;;;;;;24.95;6.22;;;;;;;24.13;60.00;100590.34;5026034;28;20041;-79
2023/09/21 06:57:03;;;;;;;13.23;5.70;;;;;;;24.10;60.92;100603.31;5020041;28;20111;-79
2023/09/21 06:59:36;;;;;;;13.57;6.38;;;;;;;24.21;62.42;100609.03;5036547;28;20196;-78
2023/09/21 07:02:05;;;;;;;21.67;6.40;;;;;;;24.30;61.26;100613.94;5008230;28;20056;-79
2023/09/21 07:04:33;;;;;;;12.50;6.25;;;;;;;24.27;61.83;100610.81;5019267;28;20059;-77
2023/09/21 07:07:05;;;;;;;18.33;6.35;;;;;;;24.28;60.84;100610.63;5023539;28;20052;-78
2023/09/21 07:09:37;;;;;;;18.15;5.65;;;;;;;23.81;60.95;100549.81;4999571;28;20455;-81
2023/09/21 07:12:07;;;;;;;58.75;10.93;;;;;;;23.96;60.94;100574.69;5026725;28;20598;-80
2023/09/21 07:14:36;;;;;;;18.40;7.13;;;;;;;24.10;60.95;100608.75;5025740;28;20831;-77
2023/09/21 07:17:05;;;;;;;24.60;6.95;;;;;;;23.99;60.69;100617.63;5018308;28;20056;-79
2023/09/21 07:19:34;;;;;;;14.15;6.85;;;;;;;23.61;62.18;100550.81;5023717;28;20077;-77
2023/09/21 07:22:03;;;;;;;14.35;6.82;;;;;;;24.00;63.14;100603.00;5025595;28;20432;-79
2023/09/21 07:24:30;;;;;;;43.22;11.77;;;;;;;24.22;63.00;100633.19;5028522;28;20045;-80
2023/09/21 07:27:01;;;;;;;43.85;17.83;;;;;;;24.23;61.72;100626.75;5026471;28;20250;-80
2023/09/21 07:29:33;;;;;;;28.63;13.68;;;;;;;24.09;62.79;100596.22;5026082;28;20394;-77
2023/09/21 07:32:01;;;;;;;33.92;13.15;;;;;;;24.14;62.86;100567.59;5016670;28;20373;-78
2023/09/21 07:34:29;;;;;;;43.63;19.17;;;;;;;24.55;62.06;100628.50;4999236;28;20049;-78
2023/09/21 07:36:57;;;;;;;14.27;7.20;;;;;;;24.75;62.34;100631.75;5026917;28;20052;-79
2023/09/21 07:39:24;;;;;;;26.52;11.90;;;;;;;24.64;61.68;100619.81;5026745;28;20530;-77
2023/09/21 07:41:53;;;;;;;29.52;11.27;;;;;;;24.69;61.42;100624.56;4999890;28;20119;-81
2023/09/21 07:44:22;;;;;;;35.58;9.95;;;;;;;24.56;61.32;100611.13;4993126;28;20053;-77
2023/09/21 07:46:52;;;;;;;23.85;8.50;;;;;;;24.64;60.53;100632.56;5014386;28;20076;-78
2023/09/21 07:49:21;;;;;;;21.58;9.02;;;;;;;24.54;60.59;100627.66;5005339;28;20091;-76
2023/09/21 07:51:49;;;;;;;25.35;8.57;;;;;;;24.51;61.41;100631.63;5014991;28;20053;-78
2023/09/21 07:54:19;;;;;;;17.45;7.25;;;;;;;24.42;61.25;100610.44;4993936;28;20146;-79
2023/09/21 07:56:53;;;;;;;47.90;9.90;;;;;;;24.56;59.76;100627.41;5026697;28;20064;-79
2023/09/21 07:59:20;;;;;;;24.02;7.78;;;;;;;24.47;60.95;100616.06;5031985;28;20041;-77
2023/09/21 08:01:48;;;;;;;50.83;9.40;;;;;;;24.66;57.66;100641.28;5026398;28;20566;-76
2023/09/21 08:04:17;;;;;;;36.70;7.30;;;;;;;23.90;58.10;100518.66;5023495;28;20049;-79
2023/09/21 08:06:44;;;;;;;23.95;6.88;;;;;;;24.70;56.49;100629.72;5018506;28;20254;-80
2023/09/21 08:09:14;;;;;;;17.55;7.38;;;;;;;24.66;59.55;100622.28;5012569;28;20049;-78
2023/09/21 08:12:00;;;;;;;22.58;6.53;;;;;;;24.38;57.59;100572.09;5021397;28;20292;-78
2023/09/21 08:14:29;;;;;;;18.90;5.20;;;;;;;24.86;55.79;100633.72;5018668;28;20041;-78
2023/09/21 08:17:01;;;;;;;312.17;35.13;;;;;;;24.87;55.23;100620.94;5022690;28;20625;-78
2023/09/21 08:19:28;;;;;;;84.57;12.10;;;;;;;24.66;55.73;100587.00;5022747;28;20486;-79
2023/09/21 08:21:58;;;;;;;42.03;7.72;;;;;;;24.95;55.40;100626.91;5017911;28;20256;-78
2023/09/21 08:24:26;;;;;;;67.72;9.65;;;;;;;24.94;55.23;100602.69;5013440;28;20309;-79
2023/09/21 08:26:55;;;;;;;62.00;9.55;;;;;;;25.01;56.44;100622.44;5004030;28;20048;-78
2023/09/21 08:29:22;;;;;;;49.15;10.07;;;;;;;25.15;57.03;100631.22;4993986;28;20037;-79
2023/09/21 08:31:49;;;;;;;23.73;7.25;;;;;;;24.81;58.02;100592.00;5009060;28;20056;-78
2023/09/21 08:34:16;;;;;;;28.48;7.95;;;;;;;24.92;59.16;100604.78;5011243;28;20036;-76
2023/09/21 08:36:44;;;;;;;30.67;7.97;;;;;;;24.91;59.53;100597.72;5000112;28;20137;-78
2023/09/21 08:39:11;;;;;;;22.88;7.80;;;;;;;24.92;58.82;100588.50;4997049;28;20494;-79
2023/09/21 08:41:48;;;;;;;31.10;8.95;;;;;;;25.06;58.67;100610.88;5008110;28;20555;-78
2023/09/21 08:44:27;;;;;;;29.77;9.50;;;;;;;25.02;59.04;100621.34;4997041;28;20049;-78
2023/09/21 08:46:56;;;;;;;25.80;8.98;;;;;;;24.92;58.94;100621.91;4989697;28;20333;-78
2023/09/21 08:49:25;;;;;;;103.78;17.45;;;;;;;24.75;58.99;100604.63;4984053;28;20314;-77
2023/09/21 08:52:00;;;;;;;21.33;9.65;;;;;;;24.53;59.50;100577.97;4985877;28;20124;-76
2023/09/21 08:54:28;;;;;;;28.48;10.35;;;;;;;24.34;59.48;100546.47;5002029;28;21060;-77
2023/09/21 08:56:56;;;;;;;26.65;10.70;;;;;;;24.67;60.16;100603.06;4998076;28;20073;-77
2023/09/21 08:59:24;;;;;;;17.33;9.32;;;;;;;24.51;60.41;100577.38;4984906;28;20050;-77
2023/09/21 09:01:52;;;;;;;25.17;9.07;;;;;;;24.80;59.42;100601.22;4997223;28;20507;-76
2023/09/21 09:04:20;;;;;;;22.65;8.63;;;;;;;24.73;59.76;100595.88;5001988;28;20514;-77
2023/09/21 09:06:51;;;;;;;24.05;8.23;;;;;;;24.78;59.86;100606.03;4997920;28;20469;-78
2023/09/21 09:09:20;;;;;;;19.67;8.65;;;;;;;24.94;58.64;100611.66;5019590;28;20045;-79
2023/09/21 09:11:47;;;;;;;21.90;8.38;;;;;;;25.00;57.92;100592.78;5009005;28;20461;-77
2023/09/21 09:14:19;;;;;;;20.33;7.45;;;;;;;25.18;57.63;100610.94;5004173;28;20063;-79
2023/09/21 09:16:46;;;;;;;15.85;6.70;;;;;;;25.15;57.50;100576.88;5016254;28;20660;-78
2023/09/21 09:19:16;;;;;;;19.77;6.85;;;;;;;25.40;57.07;100590.28;5018103;28;20045;-77
2023/09/21 09:21:48;;;;;;;18.17;7.25;;;;;;;25.61;56.04;100593.47;5019926;28;20045;-78
2023/09/21 09:24:14;;;;;;;13.13;6.40;;;;;;;25.71;56.00;100583.69;5018480;28;20282;-78
2023/09/21 09:26:53;;;;;;;14.05;6.85;;;;;;;25.43;55.68;100529.22;5023183;28;20041;-77
2023/09/21 09:29:22;;;;;;;15.27;6.45;;;;;;;25.90;54.78;100586.28;5014693;28;20063;-82
2023/09/21 09:31:51;;;;;;;18.10;6.57;;;;;;;25.88;55.04;100580.28;5028756;28;20463;-77
2023/09/21 09:34:22;;;;;;;15.30;6.03;;;;;;;25.94;54.66;100563.81;4981639;28;20053;-78
2023/09/21 09:36:54;;;;;;;23.13;6.53;;;;;;;26.22;53.89;100575.84;5015577;28;20048;-78
2023/09/21 09:39:23;;;;;;;21.48;6.75;;;;;;;26.17;54.19;100570.31;5014074;28;20048;-78
2023/09/21 09:41:53;;;;;;;21.85;7.50;;;;;;;26.05;54.96;100564.88;5021567;28;20538;-80
2023/09/21 09:44:24;;;;;;;18.17;6.60;;;;;;;26.19;54.97;100582.59;5016066;28;20450;-81
2023/09/21 09:46:58;;;;;;;21.88;6.80;;;;;;;26.13;54.83;100578.09;5024701;28;20371;-78
2023/09/21 09:49:32;;;;;;;22.92;6.85;;;;;;;26.17;54.65;100573.84;5010011;28;20095;-79
2023/09/21 09:52:05;;;;;;;18.73;7.13;;;;;;;26.35;54.60;100574.72;5021542;28;20418;-76
2023/09/21 09:54:33;;;;;;;18.02;7.78;;;;;;;26.36;54.37;100576.38;5021808;28;20049;-77
2023/09/21 09:57:01;;;;;;;21.88;7.15;;;;;;;26.16;55.21;100550.41;5012719;28;20049;-77
2023/09/21 09:59:30;;;;;;;29.88;7.32;;;;;;;26.18;54.44;100526.50;5020368;28;20568;-76
2023/09/21 10:02:07;;;;;;;21.98;8.50;;;;;;;26.36;54.55;100524.66;5035092;28;20088;-79
2023/09/21 10:04:40;;;;;;;23.80;7.53;;;;;;;26.74;54.60;100572.25;5020570;28;20430;-77
2023/09/21 10:07:08;;;;;;;23.52;8.20;;;;;;;26.84;53.80;100562.34;5014567;28;20080;-76
2023/09/21 10:09:38;;;;;;;25.48;8.23;;;;;;;26.68;53.44;100522.31;5018014;28;20045;-81
2023/09/21 10:12:07;;;;;;;27.00;7.65;;;;;;;27.12;53.20;100574.28;5021495;28;20410;-76
2023/09/21 10:14:42;;;;;;;18.40;6.35;;;;;;;26.94;52.93;100525.47;5013227;28;20455;-78
2023/09/21 10:17:22;;;;;;;20.75;7.85;;;;;;;27.47;51.97;100584.94;5007737;28;20053;-77
2023/09/21 10:19:50;;;;;;;20.60;6.32;;;;;;;27.60;51.31;100580.22;5022023;28;20493;-78
2023/09/21 10:22:26;;;;;;;18.38;6.25;;;;;;;27.67;51.88;100591.78;5022231;28;20045;-79
2023/09/21 10:25:00;;;;;;;16.20;5.72;;;;;;;27.68;50.93;100594.28;5017890;28;20053;-79
2023/09/21 10:27:28;;;;;;;13.00;6.05;;;;;;;27.67;50.80;100575.41;5015103;28;20181;-80
2023/09/21 10:30:24;;;;;;;24.05;7.97;;;;;;;27.69;50.13;100578.72;5015681;28;20068;-80
2023/09/21 10:32:53;;;;;;;19.42;7.32;;;;;;;27.65;50.55;100574.88;5016447;28;20068;-82
2023/09/21 10:35:32;;;;;;;11.48;5.97;;;;;;;27.62;50.20;100572.63;5039540;28;20041;-81
2023/09/21 10:38:13;;;;;;;16.48;5.28;;;;;;;27.53;50.36;100579.59;5017904;28;20132;-81
2023/09/21 10:40:40;;;;;;;15.10;5.30;;;;;;;27.35;51.75;100546.06;5017499;28;20134;-79
2023/09/21 10:43:39;;;;;;;46.97;8.38;;;;;;;27.40;50.02;100565.22;5016969;28;20670;-79
2023/09/21 10:46:21;;;;;;;23.48;6.13;;;;;;;27.51;48.72;100541.66;5032784;28;20087;-80
2023/09/21 10:49:09;;;;;;;12.55;4.07;;;;;;;27.20;47.21;100494.88;5031216;28;20045;-79
2023/09/21 10:51:41;;;;;;;9.13;3.97;;;;;;;27.69;47.63;100551.47;5001502;28;20576;-82
2023/09/21 10:54:12;;;;;;;11.63;4.60;;;;;;;28.04;45.71;100550.34;5024730;28;20083;-82
2023/09/21 10:56:42;;;;;;;11.38;4.93;;;;;;;27.85;47.11;100498.81;5022206;28;20046;-79
2023/09/21 10:59:10;;;;;;;12.02;4.47;;;;;;;28.18;47.87;100548.88;5039518;28;20058;-80
2023/09/21 11:01:41;;;;;;;11.75;4.65;;;;;;;28.26;47.06;100540.22;5031262;28;20509;-80
2023/09/21 11:04:11;;;;;;;7.85;4.50;;;;;;;28.25;47.79;100549.47;5017110;28;20068;-80
2023/09/21 11:06:41;;;;;;;13.27;4.38;;;;;;;28.13;46.10;100516.88;5006322;28;20063;-79
2023/09/21 11:09:08;;;;;;;9.38;4.88;;;;;;;28.06;46.72;100529.06;5021769;28;20489;-79
2023/09/21 11:11:36;;;;;;;8.13;4.38;;;;;;;27.98;47.41;100521.31;5016938;28;20041;-81
2023/09/21 11:14:07;;;;;;;9.07;5.07;;;;;;;28.18;46.60;100527.03;5009894;28;20387;-81
2023/09/21 11:16:35;;;;;;;13.18;4.80;;;;;;;28.31;46.87;100543.00;5016807;28;20342;-76
2023/09/21 11:19:13;;;;;;;12.43;4.55;;;;;;;28.37;47.52;100523.97;4996384;28;20049;-79
2023/09/21 11:21:54;;;;;;;16.05;4.40;;;;;;;28.40;46.19;100505.16;5013082;28;20057;-78
2023/09/21 11:24:22;;;;;;;11.43;4.30;;;;;;;28.54;46.08;100517.34;4999849;28;20049;-78
2023/09/21 11:26:54;;;;;;;12.50;4.00;;;;;;;28.45;47.49;100490.72;5016720;28;20044;-79
2023/09/21 11:29:21;;;;;;;8.85;3.78;;;;;;;28.51;48.13;100495.19;5021129;28;20060;-78
2023/09/21 11:31:49;;;;;;;6.85;4.03;;;;;;;28.51;48.07;100504.19;5006303;28;20340;-80